Time;durP1;ratioP1;P1;durP2;ratioP2;P2;SDS_P1;SDS_P2;PMS_P1;PMS_P2;Temp;Humidity;BMP_temperature;BMP_pressure;BME280_temperature;BME280_humidity;BME280_pressure;Samples;Min_cycle;Max_cycle;Signal;HPM_P1;HPM_P2
2022/10/17 00:01:29;;;;;;;5.92;2.60;;;;;;;12.22;75.31;102322.54;1949480;72;21215;-56
2022/10/17 00:03:58;;;;;;;4.37;2.45;;;;;;;12.19;75.26;102322.63;1947633;72;21117;-57
2022/10/17 00:06:27;;;;;;;4.55;2.83;;;;;;;12.17;75.24;102321.76;1947622;74;21031;-56
2022/10/17 00:08:55;;;;;;;7.78;2.67;;;;;;;12.15;75.07;102320.50;1949579;72;21121;-55
2022/10/17 00:11:25;;;;;;;12.23;3.00;;;;;;;12.13;74.92;102320.09;1947639;74;21083;-54
2022/10/17 00:13:55;;;;;;;5.20;2.62;;;;;;;12.09;74.84;102318.42;1947840;72;21467;-58
2022/10/17 00:16:30;;;;;;;7.60;3.05;;;;;;;12.05;74.76;102316.75;1947735;74;21063;-57
2022/10/17 00:18:59;;;;;;;3.67;2.15;;;;;;;12.02;74.64;102320.76;1947492;73;21470;-57
2022/10/17 00:21:27;;;;;;;6.53;2.72;;;;;;;11.97;74.55;102315.13;1951059;72;21129;-56
2022/10/17 00:23:56;;;;;;;6.53;2.72;;;;;;;11.93;74.46;102317.41;1951091;72;21090;-57
2022/10/17 00:26:26;;;;;;;4.35;2.40;;;;;;;11.92;74.32;102323.58;1947547;72;21059;-58
2022/10/17 00:28:55;;;;;;;4.67;2.70;;;;;;;11.88;74.25;102318.37;1947369;74;21040;-59
2022/10/17 00:31:24;;;;;;;3.70;2.15;;;;;;;11.86;74.09;102316.19;1948313;72;21075;-58
2022/10/17 00:33:54;;;;;;;4.20;2.42;;;;;;;11.83;73.95;102316.27;1949221;72;21447;-58
2022/10/17 00:36:27;;;;;;;7.05;3.75;;;;;;;11.78;73.87;102311.95;1947772;74;21023;-59
2022/10/17 00:38:58;;;;;;;5.85;2.67;;;;;;;11.76;73.83;102320.77;1948646;72;21423;-57
2022/10/17 00:41:30;;;;;;;10.35;4.50;;;;;;;11.75;73.75;102330.92;1954919;72;21426;-52
2022/10/17 00:44:08;;;;;;;12.00;3.72;;;;;;;11.73;73.71;102332.27;1947451;74;21067;-52
2022/10/17 00:46:38;;;;;;;12.90;4.65;;;;;;;11.72;73.61;102334.94;1944564;74;21110;-54
2022/10/17 00:49:11;;;;;;;15.53;6.45;;;;;;;11.69;73.58;102334.55;1947382;73;21579;-54
2022/10/17 00:51:58;;;;;;;24.02;10.40;;;;;;;11.66;73.58;102329.78;1947511;73;21015;-53
2022/10/17 00:54:30;;;;;;;25.40;8.53;;;;;;;11.64;73.63;102331.55;1947117;73;21125;-53
2022/10/17 00:56:59;;;;;;;10.03;4.28;;;;;;;11.62;73.62;102335.98;1946544;73;21044;-59
2022/10/17 00:59:30;;;;;;;7.20;3.47;;;;;;;11.59;73.59;102332.50;1954663;72;21427;-57
2022/10/17 01:02:07;;;;;;;5.37;2.37;;;;;;;11.56;73.56;102335.22;1958398;72;21035;-54
2022/10/17 01:04:38;;;;;;;6.28;2.98;;;;;;;11.54;73.57;102335.66;1950690;72;21024;-56
2022/10/17 01:07:08;;;;;;;8.60;3.15;;;;;;;11.51;73.51;102345.40;1982440;72;21043;-55
2022/10/17 01:09:38;;;;;;;3.90;2.08;;;;;;;11.48;73.54;102346.33;1980696;72;21458;-57
2022/10/17 01:12:28;;;;;;;4.40;2.50;;;;;;;11.46;73.61;102344.17;1951434;72;21037;-49
2022/10/17 01:15:19;;;;;;;4.37;2.67;;;;;;;11.45;73.55;102346.38;1947277;73;21142;-52
2022/10/17 01:18:12;;;;;;;8.30;2.77;;;;;;;11.42;73.65;102346.45;1947641;74;21112;-53
2022/10/17 01:21:07;;;;;;;4.78;2.47;;;;;;;11.40;73.65;102352.20;1947686;74;21032;-49
2022/10/17 01:24:11;;;;;;;4.25;2.58;;;;;;;11.39;73.82;102355.72;1947375;74;21536;-51
2022/10/17 01:27:09;;;;;;;5.08;2.55;;;;;;;11.36;73.75;102350.48;1947959;73;21106;-47
2022/10/17 01:30:12;;;;;;;5.08;2.17;;;;;;;11.33;73.80;102350.56;1959586;73;21515;-49
2022/10/17 01:32:46;;;;;;;6.22;2.10;;;;;;;11.31;73.83;102360.27;1938100;74;21154;-53
2022/10/17 01:35:21;;;;;;;7.70;2.20;;;;;;;11.27;73.81;102358.55;1889762;75;21486;-58
2022/10/17 01:37:53;;;;;;;6.25;2.22;;;;;;;11.24;73.84;102367.84;1896058;75;21608;-56
2022/10/17 01:40:44;;;;;;;4.50;2.58;;;;;;;11.22;73.83;102368.33;1991358;72;21818;-57
2022/10/17 01:43:20;;;;;;;3.98;2.45;;;;;;;11.20;73.83;102374.48;1996781;72;21577;-56
2022/10/17 01:46:07;;;;;;;5.37;2.65;;;;;;;11.17;73.83;102367.92;1996956;72;21063;-49
2022/10/17 01:48:38;;;;;;;4.08;2.42;;;;;;;11.16;73.87;102371.47;1995969;72;21051;-51
2022/10/17 01:51:10;;;;;;;6.37;2.80;;;;;;;11.15;73.93;102375.45;1944097;73;21480;-56
2022/10/17 01:53:44;;;;;;;8.53;2.90;;;;;;;11.15;73.95;102376.31;1953112;73;21105;-54
2022/10/17 01:56:16;;;;;;;4.28;2.25;;;;;;;11.14;73.95;102379.86;1953235;73;21428;-55
2022/10/17 01:58:55;;;;;;;9.77;3.13;;;;;;;11.13;73.99;102378.09;1953436;73;21048;-56
2022/10/17 02:01:26;;;;;;;5.80;3.20;;;;;;;11.13;74.00;102381.19;1948557;73;21021;-56
2022/10/17 02:03:58;;;;;;;7.83;4.15;;;;;;;11.11;74.04;102385.16;1919122;74;21157;-56
2022/10/17 02:06:28;;;;;;;13.35;5.55;;;;;;;11.10;74.09;102380.80;1919264;75;21057;-51
2022/10/17 02:08:57;;;;;;;22.13;6.92;;;;;;;11.09;74.12;102383.00;1919059;75;21114;-53
2022/10/17 02:11:28;;;;;;;22.27;8.35;;;;;;;11.09;74.17;102386.09;1919074;75;21040;-52
2022/10/17 02:14:08;;;;;;;7.67;3.95;;;;;;;11.09;74.31;102390.91;1930227;73;21439;-52
2022/10/17 02:16:42;;;;;;;7.75;3.15;;;;;;;11.09;74.48;102388.27;1898698;75;21208;-54
2022/10/17 02:19:19;;;;;;;7.97;3.50;;;;;;;11.09;74.49;102381.68;1928329;73;21016;-55
2022/10/17 02:22:19;;;;;;;5.62;2.77;;;;;;;11.09;74.53;102384.31;1921673;73;21600;-59
2022/10/17 02:24:53;;;;;;;9.48;3.10;;;;;;;11.07;74.54;102383.48;1918995;74;21565;-57
2022/10/17 02:27:25;;;;;;;5.50;2.72;;;;;;;11.07;74.47;102386.56;1920716;74;21052;-58
2022/10/17 02:30:00;;;;;;;5.78;2.77;;;;;;;11.07;74.47;102386.56;1949517;72;21075;-60
2022/10/17 02:32:35;;;;;;;5.22;2.30;;;;;;;11.06;74.50;102384.36;1976239;72;21059;-59
2022/10/17 02:35:07;;;;;;;4.87;3.30;;;;;;;11.05;74.69;102379.99;1978331;72;21101;-58
2022/10/17 02:37:37;;;;;;;5.35;2.55;;;;;;;11.03;74.63;102384.42;1945695;72;21600;-54
2022/10/17 02:40:08;;;;;;;6.08;2.87;;;;;;;10.99;74.63;102383.59;1944093;73;21022;-57
2022/10/17 02:42:41;;;;;;;7.47;3.05;;;;;;;10.98;74.59;102380.97;1944138;74;21005;-58
2022/10/17 02:45:11;;;;;;;5.30;3.00;;;;;;;10.97;74.58;102388.44;1944150;73;21077;-57
2022/10/17 02:47:45;;;;;;;7.33;2.83;;;;;;;10.97;74.63;102389.77;1944504;72;21020;-57
2022/10/17 02:50:14;;;;;;;6.10;2.42;;;;;;;10.96;74.78;102388.03;1934629;74;21482;-57
2022/10/17 02:52:58;;;;;;;5.45;3.20;;;;;;;10.94;74.85;102394.64;1944011;73;21414;-59
2022/10/17 02:55:32;;;;;;;4.50;2.60;;;;;;;10.93;74.89;102391.56;1941371;74;21639;-58
2022/10/17 02:58:04;;;;;;;4.87;2.30;;;;;;;10.93;74.97;102395.97;1943825;74;21056;-58
2022/10/17 03:00:35;;;;;;;5.78;2.62;;;;;;;10.91;74.98;102390.72;1944003;74;21027;-52
2022/10/17 03:03:06;;;;;;;4.47;2.58;;;;;;;10.91;74.97;102393.36;1943951;73;21047;-53
2022/10/17 03:05:35;;;;;;;4.30;3.00;;;;;;;10.91;75.04;102393.36;1941189;74;21183;-53
2022/10/17 03:08:04;;;;;;;5.12;2.52;;;;;;;10.91;75.08;102399.08;1944028;72;21027;-52
2022/10/17 03:10:33;;;;;;;4.35;2.67;;;;;;;10.91;75.02;102401.27;1943909;74;21124;-59
2022/10/17 03:13:02;;;;;;;3.02;1.98;;;;;;;10.90;75.08;102401.28;1943886;73;21192;-63
2022/10/17 03:15:32;;;;;;;7.08;2.50;;;;;;;10.88;75.25;102405.28;1943975;73;21097;-62
2022/10/17 03:18:00;;;;;;;8.83;4.70;;;;;;;10.88;75.17;102409.23;1946256;72;21025;-61
2022/10/17 03:20:29;;;;;;;12.85;4.30;;;;;;;10.88;75.52;102403.06;1943973;73;21037;-61
2022/10/17 03:22:58;;;;;;;6.85;3.02;;;;;;;10.87;75.54;102406.61;1943890;73;21037;-55
2022/10/17 03:25:28;;;;;;;5.35;2.80;;;;;;;10.85;75.52;102405.77;1938468;72;21057;-60
2022/10/17 03:28:04;;;;;;;6.92;4.00;;;;;;;10.84;75.54;102401.38;1952713;72;21004;-58
2022/10/17 03:30:33;;;;;;;7.30;3.35;;;;;;;10.84;75.55;102410.59;1945856;72;21009;-58
2022/10/17 03:33:01;;;;;;;4.85;3.17;;;;;;;10.83;75.50;102408.41;1944030;74;21037;-52
2022/10/17 03:35:31;;;;;;;6.17;3.08;;;;;;;10.84;75.48;102407.95;1946297;72;21111;-50
2022/10/17 03:38:00;;;;;;;6.90;2.92;;;;;;;10.84;75.46;102405.33;1966139;72;20991;-58
2022/10/17 03:40:30;;;;;;;4.65;2.60;;;;;;;10.85;75.48;102404.45;1944005;74;21056;-50
2022/10/17 03:42:59;;;;;;;6.10;2.70;;;;;;;10.84;75.44;102417.19;1943917;73;21113;-50
2022/10/17 03:45:29;;;;;;;5.40;2.62;;;;;;;10.84;75.41;102413.23;1943849;74;21108;-49
2022/10/17 03:48:00;;;;;;;4.47;2.75;;;;;;;10.85;75.41;102424.21;1943994;73;21016;-50
2022/10/17 03:50:28;;;;;;;5.40;3.00;;;;;;;10.84;75.41;102422.45;1943887;73;21051;-48
2022/10/17 03:52:58;;;;;;;3.77;2.62;;;;;;;10.86;75.44;102426.80;1945464;72;21575;-59
2022/10/17 03:55:26;;;;;;;5.78;2.98;;;;;;;10.86;75.48;102418.03;1943950;73;21051;-60
2022/10/17 03:57:55;;;;;;;5.22;2.45;;;;;;;10.85;75.52;102409.27;1944018;74;21121;-59
2022/10/17 04:00:24;;;;;;;4.12;2.65;;;;;;;10.84;75.54;102406.64;1944070;74;21121;-58
2022/10/17 04:02:55;;;;;;;14.98;7.10;;;;;;;10.82;75.55;102404.02;1943527;74;21076;-58
2022/10/17 04:05:24;;;;;;;6.45;3.52;;;;;;;10.81;75.58;102410.20;1944278;72;21043;-58
2022/10/17 04:07:54;;;;;;;8.55;3.72;;;;;;;10.81;75.51;102416.34;1944018;74;21028;-58
2022/10/17 04:10:24;;;;;;;9.50;4.45;;;;;;;10.81;75.49;102428.19;1942951;74;21141;-58
2022/10/17 04:12:53;;;;;;;10.08;4.15;;;;;;;10.81;75.45;102433.92;1943935;74;21031;-60
2022/10/17 04:15:23;;;;;;;5.67;3.10;;;;;;;10.78;75.57;102434.81;1944122;72;21039;-59
2022/10/17 04:17:53;;;;;;;13.28;3.20;;;;;;;10.79;75.69;102436.56;1944011;74;21008;-59
2022/10/17 04:20:41;;;;;;;10.25;4.50;;;;;;;10.80;75.61;102438.30;1850688;76;21596;-55
2022/10/17 04:23:10;;;;;;;10.35;3.85;;;;;;;10.81;75.58;102447.95;1850912;77;21090;-56
2022/10/17 04:25:39;;;;;;;7.50;3.47;;;;;;;10.82;75.58;102451.00;1849633;77;21083;-56
2022/10/17 04:28:08;;;;;;;7.10;2.65;;;;;;;10.82;75.55;102451.00;1850877;77;21059;-57
2022/10/17 04:30:38;;;;;;;5.55;2.77;;;;;;;10.84;75.54;102440.45;1850885;77;21059;-60
2022/10/17 04:33:07;;;;;;;4.87;2.92;;;;;;;10.85;75.54;102437.39;1850826;77;21473;-59
2022/10/17 04:35:36;;;;;;;7.00;3.02;;;;;;;10.86;75.54;102444.38;1850438;77;21510;-59
2022/10/17 04:38:07;;;;;;;11.55;3.80;;;;;;;10.85;75.47;102447.92;1850485;77;21119;-56
2022/10/17 04:40:37;;;;;;;21.62;8.48;;;;;;;10.85;75.41;102453.20;1849594;76;21102;-59
2022/10/17 04:43:07;;;;;;;20.20;9.35;;;;;;;10.87;75.42;102456.69;1862833;76;21150;-55
2022/10/17 04:45:37;;;;;;;23.95;10.45;;;;;;;10.87;75.40;102453.59;1845221;76;21127;-54
2022/10/17 04:48:06;;;;;;;22.67;8.95;;;;;;;10.88;75.36;102454.03;1849079;77;21158;-53
2022/10/17 04:50:35;;;;;;;24.80;8.95;;;;;;;10.89;75.35;102453.58;1849158;77;21052;-51
2022/10/17 04:53:21;;;;;;;28.60;11.33;;;;;;;10.89;75.27;102461.48;1847420;77;21140;-52
2022/10/17 04:55:50;;;;;;;29.02;10.95;;;;;;;10.92;75.23;102475.92;1847951;77;21111;-50
2022/10/17 04:58:20;;;;;;;24.18;10.20;;;;;;;10.92;75.12;102483.41;1821294;78;21677;-49
2022/10/17 05:00:50;;;;;;;19.62;8.65;;;;;;;10.94;75.06;102492.61;1848045;77;21063;-59
2022/10/17 05:03:23;;;;;;;8.00;4.87;;;;;;;10.96;74.99;102496.09;1850712;77;21614;-55
2022/10/17 05:05:52;;;;;;;6.70;3.58;;;;;;;10.97;74.92;102491.23;1849098;77;21046;-58
2022/10/17 05:08:21;;;;;;;6.00;2.90;;;;;;;10.98;74.86;102498.27;1846754;77;21124;-54
2022/10/17 05:10:51;;;;;;;5.03;2.90;;;;;;;10.99;74.80;102497.35;1846605;78;21065;-54
2022/10/17 05:13:20;;;;;;;8.33;4.42;;;;;;;10.99;74.74;102499.57;1846771;77;21054;-54
2022/10/17 05:15:49;;;;;;;6.15;3.02;;;;;;;11.01;74.71;102504.80;1848425;77;21059;-56
2022/10/17 05:18:18;;;;;;;5.40;3.12;;;;;;;11.03;74.73;102505.67;1850809;77;21059;-54
2022/10/17 05:20:47;;;;;;;9.95;4.37;;;;;;;11.03;74.71;102509.62;1849356;77;21087;-56
2022/10/17 05:23:16;;;;;;;5.30;3.08;;;;;;;11.04;74.62;102516.62;1848705;77;21098;-60
2022/10/17 05:25:45;;;;;;;4.00;2.40;;;;;;;11.05;74.55;102513.53;1870510;76;21128;-52
2022/10/17 05:28:15;;;;;;;6.75;2.52;;;;;;;11.06;74.51;102520.11;1880663;76;21078;-52
2022/10/17 05:30:44;;;;;;;5.60;2.10;;;;;;;11.06;74.46;102514.84;1864334;76;21529;-54
2022/10/17 05:33:13;;;;;;;6.28;2.25;;;;;;;11.06;74.44;102514.84;1844926;77;21032;-63
2022/10/17 05:35:42;;;;;;;5.55;2.02;;;;;;;11.07;74.39;102520.55;1845816;77;21033;-48
2022/10/17 05:38:11;;;;;;;5.40;1.72;;;;;;;11.09;74.33;102516.12;1852103;76;21158;-47
2022/10/17 05:40:42;;;;;;;6.17;2.98;;;;;;;11.15;74.24;102524.41;1858435;76;21053;-49
2022/10/17 05:43:11;;;;;;;6.72;2.42;;;;;;;11.22;74.12;102525.21;1849418;77;21011;-47
2022/10/17 05:45:40;;;;;;;5.55;2.30;;;;;;;11.29;73.97;102529.05;1849191;77;21087;-47
2022/10/17 05:48:11;;;;;;;3.08;1.80;;;;;;;11.34;73.69;102528.55;1846619;77;21099;-57
2022/10/17 05:50:40;;;;;;;13.35;5.58;;;;;;;11.39;73.56;102526.70;1845085;77;21043;-56
2022/10/17 05:53:11;;;;;;;16.52;8.33;;;;;;;11.46;73.44;102528.81;1844673;78;21059;-56
2022/10/17 05:55:41;;;;;;;5.00;2.37;;;;;;;11.52;73.29;102531.36;1844488;78;21094;-56
2022/10/17 05:58:10;;;;;;;4.78;2.55;;;;;;;11.56;73.17;102534.41;1846864;76;21042;-56
2022/10/17 06:00:40;;;;;;;5.83;2.55;;;;;;;11.62;73.09;102536.50;1849094;76;21136;-56
2022/10/17 06:03:11;;;;;;;3.67;2.05;;;;;;;11.65;72.92;102533.83;1849753;77;21091;-57
2022/10/17 06:05:40;;;;;;;4.75;2.85;;;;;;;11.63;72.77;102537.80;1849913;76;21124;-57
2022/10/17 06:08:10;;;;;;;4.05;1.60;;;;;;;11.63;72.66;102546.17;1868204;76;21071;-55
2022/10/17 06:10:40;;;;;;;3.95;2.22;;;;;;;11.65;72.58;102544.38;1875542;76;21019;-54
2022/10/17 06:13:09;;;;;;;2.85;1.45;;;;;;;11.67;72.54;102549.19;1875402;76;21055;-58
2022/10/17 06:15:38;;;;;;;3.77;2.30;;;;;;;11.68;72.46;102551.80;1875434;76;21083;-55
2022/10/17 06:18:09;;;;;;;10.70;2.47;;;;;;;11.68;72.36;102553.58;1852690;76;21075;-57
2022/10/17 06:20:38;;;;;;;4.90;2.42;;;;;;;11.69;72.35;102546.97;1814430;78;21091;-57
2022/10/17 06:23:07;;;;;;;6.85;3.25;;;;;;;11.74;72.35;102555.66;1837957;78;21103;-62
2022/10/17 06:25:46;;;;;;;4.97;2.42;;;;;;;11.79;72.35;102559.57;1834038;76;21134;-58
2022/10/17 06:28:16;;;;;;;6.17;2.83;;;;;;;11.81;72.26;102561.73;1849398;77;21168;-55
2022/10/17 06:30:45;;;;;;;4.95;2.95;;;;;;;11.83;72.18;102565.22;1846153;77;21541;-55
2022/10/17 06:33:15;;;;;;;5.87;2.40;;;;;;;11.86;72.16;102566.50;1838025;77;21175;-54
2022/10/17 06:35:46;;;;;;;3.92;2.35;;;;;;;11.91;72.13;102571.27;1837449;78;21165;-58
2022/10/17 06:38:15;;;;;;;8.40;4.00;;;;;;;11.91;71.96;102572.59;1848690;77;21552;-51
2022/10/17 06:40:48;;;;;;;10.55;3.60;;;;;;;11.95;71.87;102580.91;1849183;77;21051;-56
2022/10/17 06:43:17;;;;;;;10.30;4.35;;;;;;;12.01;71.79;102581.69;1849365;77;21067;-54
2022/10/17 06:45:51;;;;;;;14.00;5.62;;;;;;;12.05;71.71;102579.45;1841444;77;21114;-56
2022/10/17 06:48:24;;;;;;;13.15;3.85;;;;;;;12.07;71.58;102582.48;1835955;77;21074;-57
2022/10/17 06:50:55;;;;;;;;;;;;;;;12.11;71.51;102582.84;1837778;76;21078;-54
2022/10/17 06:53:28;;;;;;;7.80;2.77;;;;;;;12.18;71.48;102588.91;1837253;78;20145;-50
2022/10/17 06:56:09;;;;;;;6.70;3.15;;;;;;;12.23;71.32;102592.78;1836623;78;21601;-57
2022/10/17 06:58:50;;;;;;;5.12;2.25;;;;;;;12.26;71.19;102590.10;1836487;77;21167;-58
2022/10/17 07:01:37;;;;;;;4.60;2.72;;;;;;;12.23;70.77;102587.50;1837441;78;21111;-60
2022/10/17 07:04:25;;;;;;;5.55;2.42;;;;;;;12.21;70.69;102594.16;1997168;71;21610;-57
2022/10/17 07:06:53;;;;;;;11.70;3.45;;;;;;;12.21;70.54;102595.90;1997822;72;21574;-57
2022/10/17 07:09:27;;;;;;;68.52;27.70;;;;;;;12.21;70.58;102590.19;1976009;70;21190;-51
2022/10/17 07:11:58;;;;;;;79.82;29.82;;;;;;;12.24;70.51;102590.13;2000455;70;21063;-46
2022/10/17 07:14:30;;;;;;;40.38;15.28;;;;;;;12.24;70.42;102591.44;1994324;71;21442;-46
2022/10/17 07:16:58;;;;;;;21.48;9.48;;;;;;;12.25;70.38;102595.84;2006504;70;21007;-47
2022/10/17 07:19:30;;;;;;;15.38;6.50;;;;;;;12.24;70.32;102597.18;1996263;71;21148;-44
2022/10/17 07:21:58;;;;;;;11.18;4.83;;;;;;;12.25;70.32;102601.12;2004172;70;21003;-45
2022/10/17 07:24:28;;;;;;;8.20;3.85;;;;;;;12.24;70.23;102602.00;1989235;70;21042;-45
2022/10/17 07:27:02;;;;;;;17.00;5.28;;;;;;;12.25;70.26;102594.52;2007878;70;21218;-46
2022/10/17 07:29:31;;;;;;;11.12;5.05;;;;;;;12.25;70.22;102599.80;2008585;70;21080;-47
2022/10/17 07:32:05;;;;;;;11.10;5.22;;;;;;;12.28;70.25;102595.80;2004125;70;21035;-45
2022/10/17 07:34:33;;;;;;;13.48;5.55;;;;;;;12.28;70.10;102594.48;1995293;71;21043;-46
2022/10/17 07:37:02;;;;;;;7.75;3.25;;;;;;;12.34;70.16;102598.33;1991173;70;21772;-47
2022/10/17 07:39:31;;;;;;;6.78;2.52;;;;;;;12.43;70.17;102603.02;1993431;72;21051;-46
2022/10/17 07:42:00;;;;;;;5.28;2.08;;;;;;;12.46;70.09;102604.30;1996070;72;21051;-47
2022/10/17 07:44:30;;;;;;;2.90;1.70;;;;;;;12.47;70.17;102600.31;1988654;70;21049;-46
2022/10/17 07:46:59;;;;;;;3.90;2.20;;;;;;;12.50;70.11;102603.34;2019814;70;21035;-46
2022/10/17 07:49:34;;;;;;;11.78;1.85;;;;;;;12.50;70.03;102600.70;2019684;70;21460;-47
2022/10/17 07:52:03;;;;;;;7.40;1.47;;;;;;;12.51;70.08;102603.77;2003239;70;21544;-47
2022/10/17 07:54:32;;;;;;;1.80;1.37;;;;;;;12.50;70.05;102607.30;1993564;71;21470;-46
2022/10/17 07:57:01;;;;;;;5.12;2.30;;;;;;;12.48;70.08;102603.82;1991348;72;21007;-48
2022/10/17 07:59:30;;;;;;;5.50;2.17;;;;;;;12.46;70.11;102602.98;1992005;70;21446;-48
2022/10/17 08:01:59;;;;;;;3.70;2.12;;;;;;;12.49;70.21;102598.97;2011537;70;21039;-50
2022/10/17 08:04:28;;;;;;;4.42;2.60;;;;;;;12.51;70.36;102603.77;1948531;72;21039;-48
2022/10/17 08:06:57;;;;;;;4.97;2.83;;;;;;;12.52;70.43;102608.14;1995214;71;21039;-46
2022/10/17 08:09:26;;;;;;;7.83;3.60;;;;;;;12.50;70.49;102602.87;1971057;71;21034;-47
2022/10/17 08:11:55;;;;;;;7.17;3.58;;;;;;;12.49;70.65;102609.08;1931544;73;21050;-49
2022/10/17 08:14:24;;;;;;;16.17;3.83;;;;;;;12.48;70.73;102613.06;2006338;71;21008;-48
2022/10/17 08:16:54;;;;;;;9.70;4.58;;;;;;;12.48;70.98;102611.75;1971058;71;21015;-49
2022/10/17 08:19:23;;;;;;;12.45;5.62;;;;;;;12.47;71.02;102609.56;1948215;73;21016;-47
2022/10/17 08:21:53;;;;;;;8.00;3.42;;;;;;;12.51;71.06;102616.98;1948335;73;21024;-47
2022/10/17 08:24:22;;;;;;;7.35;3.92;;;;;;;12.55;71.09;102616.89;1947148;73;21458;-48
2022/10/17 08:26:52;;;;;;;11.15;3.17;;;;;;;12.59;71.03;102618.17;1996490;72;21102;-54
2022/10/17 08:29:21;;;;;;;9.05;2.80;;;;;;;12.62;71.10;102617.67;1996757;72;21386;-48
2022/10/17 08:31:50;;;;;;;7.55;2.83;;;;;;;12.65;71.15;102619.38;1947373;72;21008;-47
2022/10/17 08:34:19;;;;;;;14.65;7.60;;;;;;;12.70;71.11;102621.03;1971045;72;21092;-50
2022/10/17 08:36:48;;;;;;;6.30;2.65;;;;;;;12.77;71.05;102619.16;1977786;71;21131;-48
2022/10/17 08:39:17;;;;;;;8.15;3.27;;;;;;;12.82;71.08;102621.70;1966354;71;21019;-48
2022/10/17 08:42:10;;;;;;;6.25;3.20;;;;;;;12.84;71.08;102619.94;1986086;71;21215;-47
2022/10/17 08:45:00;;;;;;;5.25;2.35;;;;;;;12.87;71.09;102621.17;1944897;74;21114;-47
2022/10/17 08:47:32;;;;;;;5.05;2.62;;;;;;;12.94;71.07;102617.06;1948175;73;21510;-62
2022/10/17 08:50:04;;;;;;;5.00;2.42;;;;;;;12.99;71.12;102609.05;1936390;72;21066;-60
2022/10/17 08:53:01;;;;;;;5.83;2.77;;;;;;;13.03;71.16;102617.80;1996422;71;21432;-58
2022/10/17 08:55:40;;;;;;;3.00;1.55;;;;;;;13.05;71.17;102615.54;1952181;72;21123;-58
2022/10/17 08:58:21;;;;;;;6.47;2.15;;;;;;;13.09;71.36;102609.28;1980097;72;21077;-58
2022/10/17 09:01:07;;;;;;;4.58;2.45;;;;;;;13.10;71.46;102607.07;1958813;72;21015;-47
2022/10/17 09:03:51;;;;;;;4.65;2.20;;;;;;;13.16;71.52;102613.14;1965461;72;21589;-47
2022/10/17 09:06:28;;;;;;;5.62;2.58;;;;;;;13.20;71.56;102615.69;1943883;72;21043;-47
2022/10/17 09:09:04;;;;;;;5.12;2.67;;;;;;;13.24;71.57;102611.20;1962120;73;20990;-51
2022/10/17 09:11:53;;;;;;;4.97;2.50;;;;;;;13.31;71.64;102609.75;1962978;72;21166;-51
2022/10/17 09:14:42;;;;;;;7.22;3.70;;;;;;;13.39;71.50;102612.27;1963353;73;21105;-48
2022/10/17 09:17:26;;;;;;;9.78;3.33;;;;;;;13.51;71.44;102605.36;1972651;72;21036;-52
2022/10/17 09:20:16;;;;;;;5.25;2.45;;;;;;;13.58;71.45;102606.58;1945229;72;21145;-51
2022/10/17 09:22:57;;;;;;;4.83;2.27;;;;;;;13.58;71.54;102604.79;1942668;72;21537;-50
2022/10/17 09:25:27;;;;;;;5.30;2.67;;;;;;;13.60;71.54;102599.47;1956352;72;21093;-49
2022/10/17 09:28:04;;;;;;;9.93;2.85;;;;;;;13.57;71.58;102596.88;1962598;72;21603;-57
2022/10/17 09:31:05;;;;;;;6.35;3.08;;;;;;;13.60;71.71;102600.80;1954490;71;21032;-50
2022/10/17 09:33:42;;;;;;;14.55;6.33;;;;;;;13.61;71.63;102599.87;1943994;73;21083;-51
2022/10/17 09:36:26;;;;;;;9.55;4.70;;;;;;;13.70;71.58;102596.59;1975865;72;21023;-48
2022/10/17 09:38:57;;;;;;;10.78;3.60;;;;;;;13.70;71.62;102600.98;1969767;72;21032;-51
2022/10/17 09:41:29;;;;;;;15.98;6.70;;;;;;;13.73;71.59;102592.98;1975153;72;21033;-47
2022/10/17 09:43:59;;;;;;;10.75;5.33;;;;;;;13.74;71.59;102584.59;1968243;72;21109;-48
2022/10/17 09:46:33;;;;;;;15.68;5.40;;;;;;;13.74;71.66;102588.12;1974957;72;21106;-47
2022/10/17 09:49:11;;;;;;;9.78;3.55;;;;;;;13.74;71.81;102590.77;1957870;72;21117;-47
2022/10/17 09:51:40;;;;;;;4.30;2.87;;;;;;;13.73;71.92;102590.80;1958162;72;20992;-49
2022/10/17 09:54:21;;;;;;;13.83;4.60;;;;;;;13.70;72.01;102590.40;1977282;72;21023;-50
2022/10/17 09:57:05;;;;;;;12.10;5.00;;;;;;;13.68;72.18;102594.86;1976970;72;21027;-48
2022/10/17 09:59:37;;;;;;;7.17;3.85;;;;;;;13.64;72.33;102590.09;1977047;72;21039;-49
2022/10/17 10:02:14;;;;;;;12.68;4.08;;;;;;;13.61;72.39;102594.58;1965515;72;21469;-52
2022/10/17 10:05:02;;;;;;;14.80;5.87;;;;;;;13.61;72.50;102585.31;1942518;74;21137;-52
2022/10/17 10:07:39;;;;;;;16.50;5.97;;;;;;;13.58;72.59;102587.59;1952085;72;21059;-49
2022/10/17 10:10:25;;;;;;;5.67;2.98;;;;;;;13.59;72.59;102576.54;1952068;72;21028;-51
2022/10/17 10:13:15;;;;;;;6.87;3.67;;;;;;;13.61;72.58;102581.34;1949583;72;21124;-51
2022/10/17 10:15:47;;;;;;;6.92;4.25;;;;;;;13.63;72.72;102578.20;1977240;72;21435;-51
2022/10/17 10:18:28;;;;;;;10.40;4.00;;;;;;;13.63;72.82;102576.88;1990496;71;21118;-49
2022/10/17 10:21:09;;;;;;;8.83;4.28;;;;;;;13.63;73.09;102578.20;2013533;71;21068;-50
2022/10/17 10:23:40;;;;;;;18.98;8.63;;;;;;;13.61;73.20;102576.05;2011547;71;21107;-47
2022/10/17 10:26:27;;;;;;;19.48;7.25;;;;;;;13.60;73.42;102574.33;1976784;71;21496;-51
2022/10/17 10:29:04;;;;;;;8.08;4.50;;;;;;;13.60;73.35;102576.52;1943345;73;21141;-49
2022/10/17 10:31:38;;;;;;;11.53;4.62;;;;;;;13.59;73.53;102573.43;1942779;74;21474;-50
2022/10/17 10:34:21;;;;;;;5.85;2.83;;;;;;;13.59;73.57;102575.22;1942762;74;21105;-46
2022/10/17 10:37:02;;;;;;;11.43;5.00;;;;;;;13.60;73.50;102575.65;1942719;74;21059;-48
2022/10/17 10:39:43;;;;;;;20.85;4.00;;;;;;;13.63;73.42;102570.27;1953710;72;21109;-47
2022/10/17 10:42:23;;;;;;;7.08;2.92;;;;;;;13.64;73.51;102570.70;1949558;72;21035;-47
2022/10/17 10:44:54;;;;;;;6.22;3.77;;;;;;;13.65;73.48;102568.48;1948934;72;21109;-50
2022/10/17 10:47:26;;;;;;;8.65;4.22;;;;;;;13.64;73.62;102572.02;1977455;72;21015;-48
2022/10/17 10:50:10;;;;;;;9.78;4.00;;;;;;;13.62;73.71;102571.19;1985939;71;21083;-48
2022/10/17 10:52:43;;;;;;;8.70;4.15;;;;;;;13.61;73.71;102564.14;1952282;71;21047;-47
2022/10/17 10:55:38;;;;;;;21.57;6.58;;;;;;;13.63;73.63;102571.16;2013365;71;21536;-53
2022/10/17 10:58:16;;;;;;;7.78;3.30;;;;;;;13.66;73.55;102572.86;1940541;72;21044;-47
2022/10/17 11:00:46;;;;;;;15.10;5.28;;;;;;;13.70;73.45;102571.88;1893990;72;21005;-47
2022/10/17 11:03:23;;;;;;;11.30;3.70;;;;;;;13.71;73.47;102575.81;1970551;71;21108;-47
2022/10/17 11:06:01;;;;;;;8.50;3.42;;;;;;;13.76;73.44;102575.72;1972337;72;21059;-48
2022/10/17 11:08:35;;;;;;;10.90;4.17;;;;;;;13.78;73.47;102571.72;1988142;71;21528;-49
2022/10/17 11:11:18;;;;;;;9.73;4.35;;;;;;;13.79;73.38;102578.28;1984934;72;21465;-46
2022/10/17 11:14:07;;;;;;;4.70;3.15;;;;;;;13.81;73.35;102575.14;1965105;72;21497;-47
2022/10/17 11:16:41;;;;;;;10.98;4.25;;;;;;;13.81;73.53;102574.27;1956567;71;21153;-50
2022/10/17 11:19:21;;;;;;;5.08;2.60;;;;;;;13.79;73.63;102579.59;1959622;73;21010;-46
2022/10/17 11:22:13;;;;;;;8.48;2.95;;;;;;;13.76;73.83;102580.13;1970273;72;21093;-48
2022/10/17 11:24:45;;;;;;;5.25;2.55;;;;;;;13.73;73.93;102585.05;1992929;72;21125;-48
2022/10/17 11:27:14;;;;;;;16.07;5.78;;;;;;;13.70;74.00;102587.75;1988748;72;21039;-50
2022/10/17 11:29:44;;;;;;;14.95;5.17;;;;;;;13.68;74.03;102584.27;1995958;72;21043;-52
2022/10/17 11:32:35;;;;;;;8.28;3.65;;;;;;;13.68;74.04;102583.84;1997628;70;21103;-52
2022/10/17 11:35:07;;;;;;;6.10;2.60;;;;;;;13.69;74.01;102575.44;2038125;70;21092;-49
2022/10/17 11:37:39;;;;;;;5.90;3.08;;;;;;;13.69;74.06;102585.56;2038016;70;21606;-50
2022/10/17 11:40:19;;;;;;;12.40;4.47;;;;;;;13.69;74.12;102582.06;2036099;70;21019;-48
2022/10/17 11:43:03;;;;;;;15.10;5.15;;;;;;;13.67;74.18;102583.88;1999239;70;21054;-48
2022/10/17 11:45:37;;;;;;;14.33;6.00;;;;;;;13.66;74.16;102580.33;2001109;72;21480;-47
2022/10/17 11:48:09;;;;;;;15.32;5.33;;;;;;;13.65;74.28;102583.05;1982252;72;21151;-49
2022/10/17 11:50:40;;;;;;;11.10;5.22;;;;;;;13.65;74.31;102579.07;1964572;73;21010;-46
2022/10/17 11:53:24;;;;;;;5.80;3.60;;;;;;;13.63;74.37;102580.85;1966152;72;21968;-47